首页
METAR-TAF:

METAR-TAF

机场 :

安托法加斯塔, 智利

纬度: 23-26S, 经度: 070-26W, 海拔: 135米

当前天气观测

该预报发布于48分钟前的00:00 UTC
风速4节,风向南转南东
温度 15°C
湿度 82%
气压 1013 hPa
能见度10公里或以上
少量云层高于2500英尺

METAR: SCFA 270000Z 15004KT 9999 FEW025 15/12 Q1013 NOSIG

时间: 20:48 (00:48 UTC)

预报

该预报发布于2小时和12分钟前的22:36 UTC
预报有效从27日的 00点(UTC)到 27日的 24点(UTC)
风速4节,风向东南
能见度10公里或以上
散云层高于2700英尺
成为
从 27日的 02点(UTC)到 27日的 04点(UTC)
风速4节,风向北转东北
阴天层高于2500英尺
成为
从 27日的 11点(UTC)到 27日的 13点(UTC)
风速4节,风向北转西北
成为
从 27日的 17点(UTC)到 27日的 19点(UTC)
风速10节,风向
能见度10公里或以上
1500米以下无云,无积雨云
成为
从 27日的 22点(UTC)到 27日的 24点(UTC)
风速4节,风向

TAF: SCFA 262236Z 2700/2724 13004KT 9999 SCT027 TN15/2704Z TX19/2717Z BECMG 2702/2704 03004KT OVC025 BECMG 2711/2713 33004KT BECMG 2717/2719 18010KT CAVOK BECMG 2722/2724 17004KT

超过4000个机场的气象观测和天气预报(METAR&TAF报告)。

可查询的气象台以黄色和红色小点在地图上表示。

将鼠标移到小点上方,可查看气象台名称。

然后点击查看天气观测和预报。

如需切换地图:点击带黑十字的绿色按钮放大地图;点击带横线的绿色按钮缩小地图;或者点击绿色箭头查看邻近地区的地图。


METAR-TAF: